Cosco Melbourne — V7IF5 — position and weather

sailwx.info

Track history (hours):
 
Tides and Currents Weather Stations Pressure Air Temp Water Temp Dewpoint Dewpoint Depression Visibility Wind Speed Wind Dir Waves Ship Positions

Cosco Melbourne

Last reported at 2015-Apr-27 14:33 UTC. Time now 2015-Apr-27 15:34 UTC.
Position N 01°16' E 103°51'.

Type: Ship (hazmat cat A). MMSI: 538002366.

Date/timePositionNaut miles runAvg speedWind from/ knotsBaromVisibWave heightAir tempDewpointWater temp
2015-Apr-27 14:33N 01°16' E 103°51'0 0.0
2015-Apr-27 13:29N 01°16' E 103°51'0 0.0
2015-Apr-27 11:19N 01°16' E 103°51'0 0.0
2015-Apr-27 10:25N 01°16' E 103°51'0 0.0
2015-Apr-27 09:30N 01°16' E 103°51'0 0.0
2015-Apr-27 08:33N 01°16' E 103°51'0 0.0
2015-Apr-27 07:33N 01°16' E 103°51'4 3.6
2015-Apr-27 06:23N 01°14' E 103°54'7 8.5
2015-Apr-27 05:32N 01°16' E 104°01'1210.0
2015-Apr-27 04:17N 01°17' E 104°14'5500238.3
2015-Apr-26 05:12N 35°52' E 014°40'  
2015-Apr-20 23:26N 01°16' E 104°12'1618.6
2015-Apr-20 22:33N 01°13' E 103°56'6 6.5
2015-Apr-20 21:33N 01°16' E 103°50'0 0.0
2015-Apr-20 20:25N 01°16' E 103°50'0 0.0
2015-Apr-20 19:27N 01°16' E 103°50'0 0.0
2015-Apr-20 18:31N 01°16' E 103°50'0 0.0
2015-Apr-20 17:30N 01°16' E 103°50'0 0.0
2015-Apr-20 16:30N 01°16' E 103°50'0 0.0
2015-Apr-20 15:23N 01°16' E 103°50'0 0.0
2015-Apr-20 13:22N 01°16' E 103°50'0 0.0
2015-Apr-20 12:28N 01°16' E 103°50'0 0.0
2015-Apr-20 11:22N 01°16' E 103°50'0 0.0
2015-Apr-20 10:33N 01°16' E 103°50'0 0.0
2015-Apr-20 09:33N 01°16' E 103°50'0 0.0
2015-Apr-20 08:17N 01°16' E 103°50'0 0.0
2015-Apr-20 07:29N 01°16' E 103°50'0 0.0
2015-Apr-20 06:31N 01°16' E 103°50'0 0.0
2015-Apr-20 05:13N 01°16' E 103°50'0 0.0
2015-Apr-20 04:22N 01°16' E 103°50'0 0.0
2015-Apr-20 03:28N 01°16' E 103°50'0 0.0
2015-Apr-20 02:31N 01°16' E 103°50'0 0.0
2015-Apr-20 01:04N 01°16' E 103°50'0 0.0
2015-Apr-20 00:21N 01°16' E 103°50'0 0.0
2015-Apr-19 23:12N 01°16' E 103°50'0 0.0
2015-Apr-19 22:18N 01°16' E 103°50'0 0.0
2015-Apr-19 21:20N 01°16' E 103°50'0 0.0
2015-Apr-19 20:26N 01°16' E 103°50'0 0.0
2015-Apr-19 19:25N 01°16' E 103°50'0 0.0
2015-Apr-19 18:31N 01°16' E 103°50'0 0.0
2015-Apr-19 17:34N 01°16' E 103°50'0 0.0
2015-Apr-19 16:33N 01°16' E 103°50'0 0.0
2015-Apr-19 15:24N 01°16' E 103°50'0 0.6
2015-Apr-19 14:33N 01°16' E 103°50'5 5.2
2015-Apr-19 13:33N 01°14' E 103°55'1717.1
2015-Apr-19 12:34N 01°17' E 104°12'  
Track history (hours):
 
Tides and Currents Weather Stations Pressure Air Temp Water Temp Dewpoint Dewpoint Depression Visibility Wind Speed Wind Dir Waves Ship Positions

Cosco Melbourne

Last reported at 2015-Apr-27 14:33 UTC. Time now 2015-Apr-27 15:34 UTC.
Position N 01°16' E 103°51'.

Type: Ship (hazmat cat A). MMSI: 538002366.

Date/timePositionNaut miles runAvg speedWind from/ knotsBaromVisibWave heightAir tempDewpointWater temp
2015-Apr-27 14:33N 01°16' E 103°51'0 0.0
2015-Apr-27 13:29N 01°16' E 103°51'0 0.0
2015-Apr-27 11:19N 01°16' E 103°51'0 0.0
2015-Apr-27 10:25N 01°16' E 103°51'0 0.0
2015-Apr-27 09:30N 01°16' E 103°51'0 0.0
2015-Apr-27 08:33N 01°16' E 103°51'0 0.0
2015-Apr-27 07:33N 01°16' E 103°51'4 3.6
2015-Apr-27 06:23N 01°14' E 103°54'7 8.5
2015-Apr-27 05:32N 01°16' E 104°01'1210.0
2015-Apr-27 04:17N 01°17' E 104°14'5500238.3
2015-Apr-26 05:12N 35°52' E 014°40'  
2015-Apr-20 23:26N 01°16' E 104°12'1618.6
2015-Apr-20 22:33N 01°13' E 103°56'6 6.5
2015-Apr-20 21:33N 01°16' E 103°50'0 0.0
2015-Apr-20 20:25N 01°16' E 103°50'0 0.0
2015-Apr-20 19:27N 01°16' E 103°50'0 0.0
2015-Apr-20 18:31N 01°16' E 103°50'0 0.0
2015-Apr-20 17:30N 01°16' E 103°50'0 0.0
2015-Apr-20 16:30N 01°16' E 103°50'0 0.0
2015-Apr-20 15:23N 01°16' E 103°50'0 0.0
2015-Apr-20 13:22N 01°16' E 103°50'0 0.0
2015-Apr-20 12:28N 01°16' E 103°50'0 0.0
2015-Apr-20 11:22N 01°16' E 103°50'0 0.0
2015-Apr-20 10:33N 01°16' E 103°50'0 0.0
2015-Apr-20 09:33N 01°16' E 103°50'0 0.0
2015-Apr-20 08:17N 01°16' E 103°50'0 0.0
2015-Apr-20 07:29N 01°16' E 103°50'0 0.0
2015-Apr-20 06:31N 01°16' E 103°50'0 0.0
2015-Apr-20 05:13N 01°16' E 103°50'0 0.0
2015-Apr-20 04:22N 01°16' E 103°50'0 0.0
2015-Apr-20 03:28N 01°16' E 103°50'0 0.0
2015-Apr-20 02:31N 01°16' E 103°50'0 0.0
2015-Apr-20 01:04N 01°16' E 103°50'0 0.0
2015-Apr-20 00:21N 01°16' E 103°50'0 0.0
2015-Apr-19 23:12N 01°16' E 103°50'0 0.0
2015-Apr-19 22:18N 01°16' E 103°50'0 0.0
2015-Apr-19 21:20N 01°16' E 103°50'0 0.0
2015-Apr-19 20:26N 01°16' E 103°50'0 0.0
2015-Apr-19 19:25N 01°16' E 103°50'0 0.0
2015-Apr-19 18:31N 01°16' E 103°50'0 0.0
2015-Apr-19 17:34N 01°16' E 103°50'0 0.0
2015-Apr-19 16:33N 01°16' E 103°50'0 0.0
2015-Apr-19 15:24N 01°16' E 103°50'0 0.6
2015-Apr-19 14:33N 01°16' E 103°50'5 5.2
2015-Apr-19 13:33N 01°14' E 103°55'1717.1
2015-Apr-19 12:34N 01°17' E 104°12'  

Dump ship's entire track history